createdAt,value
2023-03-31T00:00:11.726Z,68.10
2023-03-31T00:00:32.761Z,68.12
2023-03-31T00:00:53.841Z,68.21
2023-03-31T00:01:14.882Z,68.23
2023-03-31T00:01:35.960Z,68.31
2023-03-31T00:01:57.092Z,68.30
2023-03-31T00:02:18.150Z,68.32
2023-03-31T00:02:39.288Z,68.33
2023-03-31T00:03:00.474Z,68.33
2023-03-31T00:03:21.913Z,68.37
2023-03-31T00:03:43.261Z,68.39
2023-03-31T00:04:04.612Z,68.43
2023-03-31T00:04:25.856Z,68.44
2023-03-31T00:04:46.953Z,68.41
2023-03-31T00:05:08.067Z,68.43
2023-03-31T00:05:29.122Z,68.46
2023-03-31T00:05:50.192Z,68.53
2023-03-31T00:06:11.247Z,68.46
2023-03-31T00:06:32.294Z,68.48
2023-03-31T00:06:53.377Z,68.42
2023-03-31T00:07:14.428Z,68.32
2023-03-31T00:07:35.483Z,68.42
2023-03-31T00:07:56.541Z,68.44
2023-03-31T00:08:17.608Z,68.56
2023-03-31T00:08:38.658Z,68.64
2023-03-31T00:08:59.724Z,68.74
2023-03-31T00:09:20.809Z,68.76
2023-03-31T00:09:41.863Z,68.76
2023-03-31T00:10:16.618Z,68.78
2023-03-31T00:10:29.882Z,68.81
2023-03-31T00:10:50.921Z,68.88
2023-03-31T00:11:11.988Z,68.93
2023-03-31T00:11:33.036Z,69.01
2023-03-31T00:11:54.078Z,69.05
2023-03-31T00:12:15.161Z,69.11
2023-03-31T00:12:36.216Z,69.13
2023-03-31T00:12:57.311Z,69.10
2023-03-31T00:13:18.364Z,69.13
2023-03-31T00:13:39.444Z,69.04
2023-03-31T00:14:00.470Z,69.06
2023-03-31T00:14:21.540Z,69.14
2023-03-31T00:14:42.609Z,69.16
2023-03-31T00:15:03.691Z,69.14
2023-03-31T00:15:24.758Z,69.12
2023-03-31T00:15:45.802Z,69.10
2023-03-31T00:16:07.041Z,69.16
2023-03-31T00:16:28.271Z,69.18
2023-03-31T00:16:49.346Z,69.27
2023-03-31T00:17:10.437Z,69.31
2023-03-31T00:17:31.568Z,69.31
2023-03-31T00:17:52.643Z,69.31
2023-03-31T00:18:13.674Z,69.32
2023-03-31T00:18:34.749Z,69.33
2023-03-31T00:18:55.793Z,69.44
2023-03-31T00:19:16.879Z,69.47
2023-03-31T00:19:37.942Z,69.53
2023-03-31T00:19:59.028Z,69.56
2023-03-31T00:20:20.097Z,69.48
2023-03-31T00:20:41.129Z,69.52
2023-03-31T00:21:02.528Z,69.50
2023-03-31T00:21:23.610Z,69.58
2023-03-31T00:21:44.669Z,69.56
2023-03-31T00:22:05.730Z,69.62
2023-03-31T00:22:26.784Z,69.67
2023-03-31T00:22:47.882Z,69.66
2023-03-31T00:23:08.976Z,69.66
2023-03-31T00:23:30.026Z,69.69
2023-03-31T00:23:51.102Z,69.73
2023-03-31T00:24:12.163Z,69.81
2023-03-31T00:24:33.253Z,69.90
2023-03-31T00:24:54.318Z,69.87
2023-03-31T00:25:15.418Z,69.88
2023-03-31T00:25:36.436Z,69.85
2023-03-31T00:25:57.531Z,69.83
2023-03-31T00:26:18.578Z,69.78
2023-03-31T00:26:39.641Z,69.81
2023-03-31T00:27:00.686Z,69.85
2023-03-31T00:27:21.744Z,69.88
2023-03-31T00:27:42.788Z,69.91
2023-03-31T00:28:03.876Z,69.98
2023-03-31T00:28:24.953Z,70.07
2023-03-31T00:28:46.005Z,70.09
2023-03-31T00:29:07.102Z,70.10
2023-03-31T00:29:28.165Z,70.14
2023-03-31T00:29:49.235Z,70.20
2023-03-31T00:30:10.304Z,70.23
2023-03-31T00:30:31.376Z,70.26
2023-03-31T00:30:52.426Z,70.34
2023-03-31T00:31:13.504Z,70.34
2023-03-31T00:31:34.603Z,70.35
2023-03-31T00:31:55.734Z,70.30
2023-03-31T00:32:16.771Z,70.37
2023-03-31T00:32:37.839Z,70.35
2023-03-31T00:32:58.953Z,70.40
2023-03-31T00:33:20.035Z,70.44
2023-03-31T00:33:41.092Z,70.47
2023-03-31T00:34:02.173Z,70.46
2023-03-31T00:34:23.225Z,70.45
2023-03-31T00:34:44.299Z,70.55
2023-03-31T00:35:05.341Z,70.67
2023-03-31T00:35:26.394Z,70.71
2023-03-31T00:35:47.455Z,70.74
2023-03-31T00:36:08.803Z,70.81
2023-03-31T00:36:30.071Z,70.88
2023-03-31T00:36:51.114Z,70.84
2023-03-31T00:37:12.162Z,70.88
2023-03-31T00:37:33.209Z,71.01
2023-03-31T00:37:54.291Z,71.12
2023-03-31T00:38:15.382Z,71.09
2023-03-31T00:38:36.428Z,71.14
2023-03-31T00:38:57.493Z,71.15
2023-03-31T00:39:18.571Z,71.17
2023-03-31T00:39:39.632Z,71.18
2023-03-31T00:40:00.669Z,71.27
2023-03-31T00:40:21.755Z,71.35
2023-03-31T00:40:42.782Z,71.43
2023-03-31T00:41:03.861Z,71.54
2023-03-31T00:41:24.925Z,71.58
2023-03-31T00:41:45.955Z,71.67
2023-03-31T00:42:07.041Z,71.71
2023-03-31T00:42:28.081Z,71.73
2023-03-31T00:42:49.137Z,71.73
2023-03-31T00:43:10.202Z,71.77
2023-03-31T00:43:31.321Z,71.73
2023-03-31T00:43:52.524Z,71.76
2023-03-31T00:44:13.583Z,71.83
2023-03-31T00:44:34.635Z,71.87
2023-03-31T00:44:55.699Z,71.99
2023-03-31T00:45:16.771Z,72.01
2023-03-31T00:45:37.993Z,72.03
2023-03-31T00:45:59.092Z,72.10
2023-03-31T00:46:20.277Z,72.12
2023-03-31T00:46:41.338Z,72.17
2023-03-31T00:47:02.404Z,72.22
2023-03-31T00:47:23.454Z,72.27
2023-03-31T00:47:44.545Z,72.34
2023-03-31T00:48:05.678Z,72.41
2023-03-31T00:48:26.733Z,72.43
2023-03-31T00:48:47.765Z,72.42
2023-03-31T00:49:08.878Z,72.43
2023-03-31T00:49:29.912Z,72.50
2023-03-31T00:49:50.999Z,72.54
2023-03-31T00:50:12.068Z,72.61
2023-03-31T00:50:33.087Z,72.62
2023-03-31T00:50:54.164Z,72.71
2023-03-31T00:51:15.197Z,72.71
2023-03-31T00:51:36.266Z,72.77
2023-03-31T00:51:57.316Z,72.82
2023-03-31T00:52:18.372Z,72.86
2023-03-31T00:52:39.426Z,72.89
2023-03-31T00:53:00.496Z,72.85
2023-03-31T00:53:21.536Z,72.83
2023-03-31T00:53:42.585Z,72.82
2023-03-31T00:54:03.640Z,72.88
2023-03-31T00:54:24.726Z,72.95
2023-03-31T00:54:45.836Z,72.96
2023-03-31T00:55:06.870Z,72.99
2023-03-31T00:55:27.952Z,72.98
2023-03-31T00:55:48.991Z,73.03
2023-03-31T00:56:10.061Z,73.09
2023-03-31T00:56:31.138Z,73.14
2023-03-31T00:56:52.214Z,73.11
2023-03-31T00:57:13.322Z,73.16
2023-03-31T00:57:34.447Z,73.15
2023-03-31T00:57:55.524Z,73.18
2023-03-31T00:58:16.570Z,73.24
2023-03-31T00:58:37.641Z,73.25
2023-03-31T00:58:58.711Z,73.35
2023-03-31T00:59:19.751Z,73.37
2023-03-31T00:59:40.832Z,73.41
2023-03-31T01:00:01.935Z,73.46
2023-03-31T01:00:22.945Z,73.48
2023-03-31T01:00:44.018Z,73.48
2023-03-31T01:01:05.081Z,73.49
2023-03-31T01:01:26.172Z,73.48
2023-03-31T01:01:47.221Z,73.51
2023-03-31T01:02:08.266Z,73.50
2023-03-31T01:02:29.357Z,73.48
2023-03-31T01:02:50.422Z,73.50
2023-03-31T01:03:11.531Z,73.58
2023-03-31T01:03:32.652Z,73.66
2023-03-31T01:03:53.700Z,73.66
2023-03-31T01:04:14.747Z,73.66
2023-03-31T01:04:35.810Z,73.68
2023-03-31T01:04:56.889Z,73.70
2023-03-31T01:05:17.977Z,73.67
2023-03-31T01:05:39.029Z,73.67
2023-03-31T01:06:00.100Z,73.59
2023-03-31T01:06:21.132Z,73.61
2023-03-31T01:06:42.209Z,73.62
2023-03-31T01:07:03.250Z,73.59
2023-03-31T01:07:24.308Z,73.62
2023-03-31T01:07:45.368Z,73.59
2023-03-31T01:08:06.433Z,73.58
2023-03-31T01:08:27.499Z,73.55
2023-03-31T01:08:48.541Z,73.57
2023-03-31T01:09:09.603Z,73.56
2023-03-31T01:09:30.666Z,73.56
2023-03-31T01:09:51.745Z,73.55
2023-03-31T01:10:12.863Z,73.61
2023-03-31T01:10:33.924Z,73.63
2023-03-31T01:10:54.958Z,73.69
2023-03-31T01:11:16.017Z,73.70
2023-03-31T01:11:37.073Z,73.71
2023-03-31T01:11:58.119Z,73.78
2023-03-31T01:12:19.210Z,73.79
2023-03-31T01:12:40.257Z,73.82
2023-03-31T01:13:01.310Z,73.85
2023-03-31T01:13:22.356Z,73.86
2023-03-31T01:13:43.436Z,73.93
2023-03-31T01:14:04.469Z,73.92
2023-03-31T01:14:25.554Z,73.93
2023-03-31T01:14:46.614Z,73.93
2023-03-31T01:15:07.650Z,73.99
2023-03-31T01:15:28.751Z,74.02
2023-03-31T01:15:49.821Z,74.03
2023-03-31T01:16:10.875Z,74.06
2023-03-31T01:16:31.939Z,74.06
2023-03-31T01:16:53.049Z,74.08
2023-03-31T01:17:14.237Z,74.12
2023-03-31T01:17:35.494Z,74.12
2023-03-31T01:17:56.823Z,74.15
2023-03-31T01:18:17.933Z,74.19
2023-03-31T01:18:39.017Z,74.25
2023-03-31T01:19:00.075Z,74.27
2023-03-31T01:19:21.109Z,74.29
2023-03-31T01:19:42.185Z,74.33
2023-03-31T01:20:03.249Z,74.33
2023-03-31T01:20:24.282Z,74.35
2023-03-31T01:20:45.398Z,74.38
2023-03-31T01:21:06.422Z,74.43
2023-03-31T01:21:27.534Z,74.45
2023-03-31T01:21:48.556Z,74.46
2023-03-31T01:22:09.607Z,74.47
2023-03-31T01:22:30.673Z,74.46
2023-03-31T01:22:51.741Z,74.50
2023-03-31T01:23:12.778Z,74.52
2023-03-31T01:23:33.845Z,74.51
2023-03-31T01:23:54.883Z,74.56
2023-03-31T01:24:15.948Z,74.59
2023-03-31T01:24:37.021Z,74.55
2023-03-31T01:24:58.060Z,74.55
2023-03-31T01:25:19.130Z,74.54
2023-03-31T01:25:40.205Z,74.57
2023-03-31T01:26:01.271Z,74.64
2023-03-31T01:26:22.342Z,74.63
2023-03-31T01:26:43.432Z,74.61
2023-03-31T01:27:04.567Z,74.61
2023-03-31T01:27:25.589Z,74.58
2023-03-31T01:27:46.651Z,74.56
2023-03-31T01:28:07.704Z,74.58
2023-03-31T01:28:28.758Z,74.59
2023-03-31T01:28:49.848Z,74.62
2023-03-31T01:29:10.882Z,74.61
2023-03-31T01:29:31.944Z,74.62
2023-03-31T01:29:53.002Z,74.66
2023-03-31T01:30:14.060Z,74.66
2023-03-31T01:30:35.151Z,74.68
2023-03-31T01:30:56.261Z,74.67
2023-03-31T01:31:17.482Z,74.67
2023-03-31T01:31:38.683Z,74.67
2023-03-31T01:31:59.719Z,74.72
2023-03-31T01:32:20.775Z,74.72
2023-03-31T01:32:41.848Z,74.70
2023-03-31T01:33:02.956Z,74.73
2023-03-31T01:33:23.993Z,74.70
2023-03-31T01:33:45.061Z,74.68
2023-03-31T01:34:06.106Z,74.72
2023-03-31T01:34:27.166Z,74.73
2023-03-31T01:34:48.229Z,74.76
2023-03-31T01:35:09.279Z,74.82
2023-03-31T01:35:30.365Z,74.82
2023-03-31T01:35:51.439Z,74.83
2023-03-31T01:36:12.533Z,74.84
2023-03-31T01:36:33.578Z,74.86
2023-03-31T01:36:54.645Z,74.88
2023-03-31T01:37:15.704Z,74.92
2023-03-31T01:37:36.761Z,74.93
2023-03-31T01:37:57.828Z,74.96
2023-03-31T01:38:18.903Z,74.94
2023-03-31T01:38:39.972Z,75.00
2023-03-31T01:39:01.030Z,74.97
2023-03-31T01:39:22.086Z,74.95
2023-03-31T01:39:43.136Z,74.98
2023-03-31T01:40:04.208Z,74.95
2023-03-31T01:40:25.266Z,74.88
2023-03-31T01:40:46.347Z,74.87
2023-03-31T01:41:07.395Z,74.92
2023-03-31T01:41:28.450Z,74.86
2023-03-31T01:41:49.523Z,74.77
2023-03-31T01:42:10.573Z,74.79
2023-03-31T01:42:31.640Z,74.72
2023-03-31T01:42:52.747Z,74.71
2023-03-31T01:43:13.782Z,74.70
2023-03-31T01:43:34.833Z,74.68
2023-03-31T01:43:55.907Z,74.71
2023-03-31T01:44:16.953Z,74.69
2023-03-31T01:44:38.010Z,74.66
2023-03-31T01:44:59.082Z,74.63
2023-03-31T01:45:20.172Z,74.62
2023-03-31T01:45:41.240Z,74.64
2023-03-31T01:46:02.390Z,74.62
2023-03-31T01:46:23.458Z,74.59
2023-03-31T01:46:44.588Z,74.61
2023-03-31T01:47:05.700Z,74.62
2023-03-31T01:47:26.743Z,74.64
2023-03-31T01:47:47.852Z,74.60
2023-03-31T01:48:08.967Z,74.66
2023-03-31T01:48:30.012Z,74.70
2023-03-31T01:48:51.080Z,74.78
2023-03-31T01:49:12.130Z,74.84
2023-03-31T01:49:33.177Z,74.85
2023-03-31T01:49:54.225Z,74.88
2023-03-31T01:50:15.286Z,74.89
2023-03-31T01:50:36.345Z,74.87
2023-03-31T01:50:57.407Z,74.93
2023-03-31T01:51:18.478Z,74.92
2023-03-31T01:51:39.533Z,74.95
2023-03-31T01:52:00.617Z,74.90
2023-03-31T01:52:21.743Z,74.99
2023-03-31T01:52:42.782Z,74.99
2023-03-31T01:53:03.847Z,74.98
2023-03-31T01:53:24.907Z,74.99
2023-03-31T01:53:45.960Z,75.01
2023-03-31T01:54:07.065Z,75.00
2023-03-31T01:54:28.125Z,75.00
2023-03-31T01:54:49.175Z,75.04
2023-03-31T01:55:10.233Z,75.04
2023-03-31T01:55:31.294Z,75.05
2023-03-31T01:55:52.395Z,75.05
2023-03-31T01:56:13.416Z,75.04
2023-03-31T01:56:34.481Z,75.09
2023-03-31T01:56:55.583Z,75.04
2023-03-31T01:57:16.733Z,75.11
2023-03-31T01:57:38.039Z,75.18
2023-03-31T01:57:59.107Z,75.20
2023-03-31T01:58:20.165Z,75.13
2023-03-31T01:58:41.265Z,75.17
2023-03-31T01:59:02.337Z,75.18
2023-03-31T01:59:23.356Z,75.20
2023-03-31T01:59:44.412Z,75.26
2023-03-31T02:00:05.466Z,75.25
2023-03-31T02:00:26.524Z,75.27
2023-03-31T02:00:47.603Z,75.34
2023-03-31T02:01:08.639Z,75.34
2023-03-31T02:01:31.028Z,75.31
2023-03-31T02:01:52.376Z,75.38
2023-03-31T02:02:13.461Z,75.43
2023-03-31T02:02:34.569Z,75.43
2023-03-31T02:02:55.804Z,75.41
2023-03-31T02:03:17.011Z,75.42
2023-03-31T02:03:38.258Z,75.42
2023-03-31T02:03:59.500Z,75.42
2023-03-31T02:04:20.582Z,75.39
2023-03-31T02:04:41.632Z,75.43
2023-03-31T02:05:02.717Z,75.39
2023-03-31T02:05:23.758Z,75.38
2023-03-31T02:05:44.800Z,75.34
2023-03-31T02:06:05.987Z,75.33
2023-03-31T02:06:27.081Z,75.36
2023-03-31T02:06:48.147Z,75.37
2023-03-31T02:07:09.200Z,75.29
2023-03-31T02:07:30.264Z,75.35
2023-03-31T02:07:51.306Z,75.37
2023-03-31T02:08:12.546Z,75.38
2023-03-31T02:08:33.588Z,75.40
2023-03-31T02:08:54.662Z,75.41
2023-03-31T02:09:15.699Z,75.43
2023-03-31T02:09:36.774Z,75.45
2023-03-31T02:09:57.835Z,75.40
2023-03-31T02:10:18.925Z,75.40
2023-03-31T02:10:39.940Z,75.44
2023-03-31T02:11:01.022Z,75.43
2023-03-31T02:11:22.152Z,75.47
2023-03-31T02:11:43.168Z,75.44
2023-03-31T02:12:04.220Z,75.42
2023-03-31T02:12:25.278Z,75.39
2023-03-31T02:12:46.328Z,75.40
2023-03-31T02:13:07.389Z,75.41
2023-03-31T02:13:28.470Z,75.48
2023-03-31T02:13:49.527Z,75.48
2023-03-31T02:14:10.589Z,75.48
2023-03-31T02:14:31.653Z,75.48
2023-03-31T02:14:52.739Z,75.43
2023-03-31T02:15:13.775Z,75.50
2023-03-31T02:15:34.848Z,75.48
2023-03-31T02:15:55.923Z,75.49
2023-03-31T02:16:17.051Z,75.46
2023-03-31T02:16:38.192Z,75.49
2023-03-31T02:16:59.293Z,75.47
2023-03-31T02:17:20.451Z,75.46
2023-03-31T02:17:41.550Z,75.43
2023-03-31T02:18:02.621Z,75.43
2023-03-31T02:18:23.646Z,75.44
2023-03-31T02:18:44.719Z,75.42
2023-03-31T02:19:05.791Z,75.39
2023-03-31T02:19:26.876Z,75.38
2023-03-31T02:19:47.914Z,75.34
2023-03-31T02:20:08.976Z,75.36
2023-03-31T02:20:30.039Z,75.33
2023-03-31T02:20:51.103Z,75.31
2023-03-31T02:21:12.145Z,75.27
2023-03-31T02:21:33.232Z,75.25
2023-03-31T02:21:54.260Z,75.26
2023-03-31T02:22:15.312Z,75.25
2023-03-31T02:22:36.368Z,75.24
2023-03-31T02:22:57.436Z,75.25
2023-03-31T02:23:18.486Z,75.24
2023-03-31T02:23:39.548Z,75.23
2023-03-31T02:24:00.800Z,75.24
2023-03-31T02:24:21.844Z,75.25
2023-03-31T02:24:42.893Z,75.28
2023-03-31T02:25:03.956Z,75.28
2023-03-31T02:25:25.012Z,75.26
2023-03-31T02:25:46.074Z,75.26
2023-03-31T02:26:07.354Z,75.24
2023-03-31T02:26:28.501Z,75.28
2023-03-31T02:26:49.548Z,75.28
2023-03-31T02:27:10.603Z,75.28
2023-03-31T02:27:31.658Z,75.28
2023-03-31T02:27:52.737Z,75.32
2023-03-31T02:28:13.765Z,75.30
2023-03-31T02:28:34.869Z,75.26
2023-03-31T02:28:55.947Z,75.31
2023-03-31T02:29:17.005Z,75.29
2023-03-31T02:29:38.071Z,75.36
2023-03-31T02:29:59.131Z,75.36
2023-03-31T02:30:20.184Z,75.33
2023-03-31T02:30:41.277Z,75.30
2023-03-31T02:31:02.305Z,75.29
2023-03-31T02:31:23.415Z,75.29
2023-03-31T02:31:44.519Z,75.30
2023-03-31T02:32:05.553Z,75.35
2023-03-31T02:32:26.631Z,75.37
2023-03-31T02:32:47.749Z,75.38
2023-03-31T02:33:08.809Z,75.40
2023-03-31T02:33:29.832Z,75.38
2023-03-31T02:33:50.928Z,75.44
2023-03-31T02:34:11.972Z,75.39
2023-03-31T02:34:33.049Z,75.40
2023-03-31T02:34:54.105Z,75.41
2023-03-31T02:35:15.169Z,75.41
2023-03-31T02:35:36.254Z,75.44
2023-03-31T02:35:57.329Z,75.43
2023-03-31T02:36:18.443Z,75.44
2023-03-31T02:36:39.489Z,75.41
2023-03-31T02:37:00.554Z,75.47
2023-03-31T02:37:21.600Z,75.47
2023-03-31T02:37:42.663Z,75.53
2023-03-31T02:38:03.711Z,75.55
2023-03-31T02:38:24.773Z,75.52
2023-03-31T02:38:45.847Z,75.53
2023-03-31T02:39:06.906Z,75.53
2023-03-31T02:39:27.957Z,75.53
2023-03-31T02:39:49.047Z,75.53
2023-03-31T02:40:10.094Z,75.52
2023-03-31T02:40:31.166Z,75.53
2023-03-31T02:40:52.219Z,75.53
2023-03-31T02:41:13.320Z,75.56
2023-03-31T02:41:34.395Z,75.55
2023-03-31T02:41:55.432Z,75.53
2023-03-31T02:42:16.473Z,75.60
2023-03-31T02:42:37.537Z,75.60
2023-03-31T02:42:58.602Z,75.59
2023-03-31T02:43:19.672Z,75.57
2023-03-31T02:43:40.707Z,75.58
2023-03-31T02:44:01.774Z,75.56
2023-03-31T02:44:22.900Z,75.53
2023-03-31T02:44:43.992Z,75.51
2023-03-31T02:45:05.093Z,75.46
2023-03-31T02:45:26.223Z,75.46
2023-03-31T02:45:47.315Z,75.39
2023-03-31T02:46:08.607Z,75.44
2023-03-31T02:46:30.043Z,75.40
2023-03-31T02:46:51.147Z,75.39
2023-03-31T02:47:12.192Z,75.29
2023-03-31T02:47:33.280Z,75.32
2023-03-31T02:47:54.354Z,75.31
2023-03-31T02:48:15.419Z,75.29
2023-03-31T02:48:36.508Z,75.29
2023-03-31T02:48:57.585Z,75.28
2023-03-31T02:49:18.621Z,75.30
2023-03-31T02:49:39.676Z,75.33
2023-03-31T02:50:00.776Z,75.29
2023-03-31T02:50:21.857Z,75.29
2023-03-31T02:50:42.897Z,75.27
2023-03-31T02:51:03.963Z,75.25
2023-03-31T02:51:25.016Z,75.24
2023-03-31T02:51:46.066Z,75.27
2023-03-31T02:52:13.796Z,75.25
2023-03-31T02:52:34.839Z,75.32
2023-03-31T02:52:55.890Z,75.26
2023-03-31T02:53:16.974Z,75.25
2023-03-31T02:53:38.012Z,75.28
2023-03-31T02:53:59.067Z,75.23
2023-03-31T02:54:20.153Z,75.26
2023-03-31T02:54:41.217Z,75.19
2023-03-31T02:55:02.255Z,75.22
2023-03-31T02:55:23.472Z,75.15
2023-03-31T02:55:44.524Z,75.18
2023-03-31T02:56:05.846Z,75.18
2023-03-31T02:56:26.998Z,75.22
2023-03-31T02:56:48.084Z,75.18
2023-03-31T02:57:09.151Z,75.22
2023-03-31T02:57:30.263Z,75.21
2023-03-31T02:57:51.290Z,75.26
2023-03-31T02:58:12.352Z,75.31
2023-03-31T02:58:33.401Z,75.22
2023-03-31T02:58:54.462Z,75.27
2023-03-31T02:59:15.522Z,75.33
2023-03-31T02:59:36.569Z,75.31
2023-03-31T02:59:57.632Z,75.34
2023-03-31T03:00:18.710Z,75.36
2023-03-31T03:00:39.814Z,75.38
2023-03-31T03:01:00.863Z,75.39
2023-03-31T03:01:21.953Z,75.41
2023-03-31T03:01:43.026Z,75.42
2023-03-31T03:02:04.094Z,75.48
2023-03-31T03:02:25.370Z,75.44
2023-03-31T03:02:46.574Z,75.44
2023-03-31T03:03:07.797Z,75.41
2023-03-31T03:03:29.021Z,75.42
2023-03-31T03:03:50.056Z,75.42
2023-03-31T03:04:11.110Z,75.42
2023-03-31T03:04:32.159Z,75.47
2023-03-31T03:04:53.227Z,75.44
2023-03-31T03:05:14.320Z,75.46
2023-03-31T03:05:35.369Z,75.48
2023-03-31T03:05:56.442Z,75.45
2023-03-31T03:06:17.524Z,75.50
2023-03-31T03:06:38.594Z,75.49
2023-03-31T03:06:59.643Z,75.49
2023-03-31T03:07:20.678Z,75.52
2023-03-31T03:07:41.740Z,75.53
2023-03-31T03:08:02.812Z,75.52
2023-03-31T03:08:23.846Z,75.52
2023-03-31T03:08:44.910Z,75.50
2023-03-31T03:09:05.971Z,75.52
2023-03-31T03:09:27.027Z,75.51
2023-03-31T03:09:48.081Z,75.49
2023-03-31T03:10:09.184Z,75.53
2023-03-31T03:10:30.232Z,75.47
2023-03-31T03:10:51.274Z,75.49
2023-03-31T03:11:12.372Z,75.51
2023-03-31T03:11:33.432Z,75.49
2023-03-31T03:11:54.456Z,75.49
2023-03-31T03:12:15.547Z,75.52
2023-03-31T03:12:36.568Z,75.53
2023-03-31T03:12:57.623Z,75.52
2023-03-31T03:13:18.700Z,75.53
2023-03-31T03:13:39.738Z,75.55
2023-03-31T03:14:00.794Z,75.55
2023-03-31T03:14:21.870Z,75.55
2023-03-31T03:14:42.964Z,75.53
2023-03-31T03:15:04.028Z,75.56
2023-03-31T03:15:25.144Z,75.56
2023-03-31T03:15:46.158Z,75.58
2023-03-31T03:16:07.333Z,75.56
2023-03-31T03:16:28.538Z,75.50
2023-03-31T03:16:49.666Z,75.41
2023-03-31T03:17:10.694Z,75.38
2023-03-31T03:17:31.819Z,75.34
2023-03-31T03:17:52.893Z,75.27
2023-03-31T03:18:13.918Z,75.14
2023-03-31T03:18:34.981Z,75.10
2023-03-31T03:18:56.040Z,75.06
2023-03-31T03:19:17.097Z,75.07
2023-03-31T03:19:38.159Z,75.06
2023-03-31T03:19:59.236Z,75.04
2023-03-31T03:20:20.263Z,75.05
2023-03-31T03:20:41.316Z,75.00
2023-03-31T03:21:02.372Z,74.91
2023-03-31T03:21:23.443Z,74.90
2023-03-31T03:21:44.655Z,74.80
2023-03-31T03:22:08.045Z,74.76
2023-03-31T03:22:30.279Z,74.65
2023-03-31T03:22:51.317Z,74.60
2023-03-31T03:23:12.405Z,74.56
2023-03-31T03:23:33.441Z,74.53
2023-03-31T03:23:54.491Z,74.48
2023-03-31T03:24:15.551Z,74.48
2023-03-31T03:24:36.618Z,74.45
2023-03-31T03:24:57.688Z,74.46
2023-03-31T03:25:18.730Z,74.47
2023-03-31T03:25:39.830Z,74.44
2023-03-31T03:26:00.869Z,74.45
2023-03-31T03:26:21.948Z,74.48
2023-03-31T03:26:43.008Z,74.43
2023-03-31T03:27:04.063Z,74.42
2023-03-31T03:27:25.131Z,74.42
2023-03-31T03:27:46.177Z,74.40
2023-03-31T03:28:07.240Z,74.41
2023-03-31T03:28:28.298Z,74.42
2023-03-31T03:28:49.355Z,74.42
2023-03-31T03:29:10.414Z,74.42
2023-03-31T03:29:31.473Z,74.42
2023-03-31T03:29:52.573Z,74.40
2023-03-31T03:30:13.590Z,74.37
2023-03-31T03:30:34.665Z,74.35
2023-03-31T03:30:55.765Z,74.28
2023-03-31T03:31:16.838Z,74.32
2023-03-31T03:31:37.866Z,74.28
2023-03-31T03:31:58.930Z,74.24
2023-03-31T03:32:20.024Z,74.20
2023-03-31T03:32:41.132Z,74.20
2023-03-31T03:33:02.259Z,74.14
2023-03-31T03:33:23.327Z,74.20
2023-03-31T03:33:44.379Z,74.17
2023-03-31T03:34:05.442Z,74.23
2023-03-31T03:34:26.497Z,74.14
2023-03-31T03:34:47.544Z,74.24
2023-03-31T03:35:08.592Z,74.28
2023-03-31T03:35:29.662Z,74.28
2023-03-31T03:35:50.793Z,74.23
2023-03-31T03:36:11.848Z,74.25
2023-03-31T03:36:32.889Z,74.28
2023-03-31T03:36:53.958Z,74.27
2023-03-31T03:37:15.010Z,74.37
2023-03-31T03:37:36.064Z,74.36
2023-03-31T03:37:57.121Z,74.32
2023-03-31T03:38:18.168Z,74.34
2023-03-31T03:38:39.229Z,74.36
2023-03-31T03:39:00.304Z,74.37
2023-03-31T03:39:21.353Z,74.40
2023-03-31T03:39:42.413Z,74.43
2023-03-31T03:40:03.472Z,74.48
2023-03-31T03:40:24.553Z,74.48
2023-03-31T03:40:46.608Z,74.52
2023-03-31T03:41:08.702Z,74.57
2023-03-31T03:41:29.744Z,74.57
2023-03-31T03:41:50.857Z,74.60
2023-03-31T03:42:11.884Z,74.63
2023-03-31T03:42:32.945Z,74.63
2023-03-31T03:42:54.159Z,74.62
2023-03-31T03:43:15.213Z,74.64
2023-03-31T03:43:36.273Z,74.67
2023-03-31T03:43:57.331Z,74.65
2023-03-31T03:44:18.390Z,74.68
2023-03-31T03:44:39.453Z,74.70
2023-03-31T03:45:00.513Z,74.72
2023-03-31T03:45:21.570Z,74.75
2023-03-31T03:45:42.624Z,74.76
2023-03-31T03:46:03.857Z,74.76
2023-03-31T03:46:25.179Z,74.78
2023-03-31T03:46:46.274Z,74.78
2023-03-31T03:47:07.312Z,74.80
2023-03-31T03:47:28.454Z,74.87
2023-03-31T03:47:49.617Z,74.81
2023-03-31T03:48:10.756Z,74.89
2023-03-31T03:48:31.824Z,74.83
2023-03-31T03:48:52.860Z,74.86
2023-03-31T03:49:13.918Z,74.87
2023-03-31T03:49:34.978Z,74.93
2023-03-31T03:49:56.032Z,74.93
2023-03-31T03:50:17.108Z,74.94
2023-03-31T03:50:38.153Z,75.03
2023-03-31T03:50:59.209Z,75.02
2023-03-31T03:51:20.289Z,74.98
2023-03-31T03:51:41.342Z,75.01
2023-03-31T03:52:02.394Z,75.10
2023-03-31T03:52:23.493Z,75.14
2023-03-31T03:52:44.521Z,75.14
2023-03-31T03:53:05.589Z,75.14
2023-03-31T03:53:26.683Z,75.17
2023-03-31T03:53:47.735Z,75.21
2023-03-31T03:54:08.782Z,75.20
2023-03-31T03:54:29.890Z,75.18
2023-03-31T03:54:50.956Z,75.13
2023-03-31T03:55:11.978Z,75.17
2023-03-31T03:55:33.032Z,75.17
2023-03-31T03:55:54.093Z,75.18
2023-03-31T03:56:15.161Z,75.11
2023-03-31T03:56:36.224Z,75.16
2023-03-31T03:56:57.403Z,75.14
2023-03-31T03:57:18.509Z,75.16
2023-03-31T03:57:39.590Z,75.15
2023-03-31T03:58:00.667Z,75.17
2023-03-31T03:58:21.733Z,75.21
2023-03-31T03:58:42.847Z,75.19
2023-03-31T03:59:03.890Z,75.23
2023-03-31T03:59:24.949Z,75.23
2023-03-31T03:59:46.037Z,75.23
2023-03-31T04:00:07.054Z,75.25
2023-03-31T04:00:28.115Z,75.27
2023-03-31T04:00:49.185Z,75.29
2023-03-31T04:01:10.229Z,75.25
2023-03-31T04:01:31.283Z,75.31
2023-03-31T04:01:52.366Z,75.32
2023-03-31T04:02:13.514Z,75.30
2023-03-31T04:02:34.691Z,75.30
2023-03-31T04:02:55.861Z,75.30
2023-03-31T04:03:16.939Z,75.28
2023-03-31T04:03:37.983Z,75.30
2023-03-31T04:03:59.040Z,75.30
2023-03-31T04:04:20.097Z,75.33
2023-03-31T04:04:41.178Z,75.30
2023-03-31T04:05:02.229Z,75.32
2023-03-31T04:05:23.371Z,75.36
2023-03-31T04:05:44.491Z,75.34
2023-03-31T04:06:05.777Z,75.37
2023-03-31T04:06:27.132Z,75.38
2023-03-31T04:06:48.182Z,75.32
2023-03-31T04:07:09.243Z,75.34
2023-03-31T04:07:30.292Z,75.40
2023-03-31T04:07:51.351Z,75.39
2023-03-31T04:08:12.411Z,75.31
2023-03-31T04:08:33.472Z,75.32
2023-03-31T04:08:54.572Z,75.34
2023-03-31T04:09:15.607Z,75.34
2023-03-31T04:09:36.662Z,75.34
2023-03-31T04:09:57.721Z,75.37
2023-03-31T04:10:18.776Z,75.35
2023-03-31T04:10:39.832Z,75.39
2023-03-31T04:11:00.919Z,75.39
2023-03-31T04:11:21.958Z,75.39
2023-03-31T04:11:43.016Z,75.40
2023-03-31T04:12:04.104Z,75.40
2023-03-31T04:12:25.121Z,75.41
2023-03-31T04:12:46.184Z,75.42
2023-03-31T04:13:07.233Z,75.47
2023-03-31T04:13:28.292Z,75.47
2023-03-31T04:13:49.343Z,75.49
2023-03-31T04:14:10.432Z,75.52
2023-03-31T04:14:31.489Z,75.51
2023-03-31T04:14:52.574Z,75.48
2023-03-31T04:15:13.616Z,75.45
2023-03-31T04:15:34.677Z,75.45
2023-03-31T04:15:55.757Z,75.45
2023-03-31T04:16:16.998Z,75.44
2023-03-31T04:16:38.113Z,75.45
2023-03-31T04:16:59.213Z,75.46
2023-03-31T04:17:20.260Z,75.44
2023-03-31T04:17:41.387Z,75.47
2023-03-31T04:18:02.460Z,75.45
2023-03-31T04:18:23.574Z,75.41
2023-03-31T04:18:44.609Z,75.46
2023-03-31T04:19:05.702Z,75.47
2023-03-31T04:19:26.793Z,75.44
2023-03-31T04:19:47.858Z,75.46
2023-03-31T04:20:08.915Z,75.46
2023-03-31T04:20:29.968Z,75.42
2023-03-31T04:20:51.045Z,75.43
2023-03-31T04:21:12.112Z,75.48
2023-03-31T04:21:33.150Z,75.50
2023-03-31T04:21:54.213Z,75.47
2023-03-31T04:22:15.298Z,75.52
2023-03-31T04:22:36.584Z,75.52
2023-03-31T04:22:57.639Z,75.51
2023-03-31T04:23:18.673Z,75.50
2023-03-31T04:23:39.733Z,75.51
2023-03-31T04:24:00.844Z,75.45
2023-03-31T04:24:22.102Z,75.41
2023-03-31T04:24:43.154Z,75.51
2023-03-31T04:25:04.263Z,75.45
2023-03-31T04:25:25.292Z,75.42
2023-03-31T04:25:46.382Z,75.41
2023-03-31T04:26:07.821Z,75.41
2023-03-31T04:26:29.120Z,75.41
2023-03-31T04:26:50.200Z,75.46
2023-03-31T04:27:11.290Z,75.46
2023-03-31T04:27:32.325Z,75.46
2023-03-31T04:27:53.364Z,75.48
2023-03-31T04:28:14.438Z,75.48
2023-03-31T04:28:35.509Z,75.51
2023-03-31T04:28:56.583Z,75.53
2023-03-31T04:29:17.654Z,75.51
2023-03-31T04:29:38.693Z,75.55
2023-03-31T04:29:59.752Z,75.54
2023-03-31T04:30:20.825Z,75.58
2023-03-31T04:30:41.930Z,75.54
2023-03-31T04:31:02.979Z,75.48
2023-03-31T04:31:24.065Z,75.45
2023-03-31T04:31:45.169Z,75.49